createdAt,value
2019-05-20T00:01:27.774Z,17.2
2019-05-20T00:11:27.934Z,12.6
2019-05-20T00:21:25.314Z,15.4
2019-05-20T00:31:31.923Z,12.6
2019-05-20T00:41:25.530Z,11.8
2019-05-20T00:51:26.266Z,13.1
2019-05-20T01:01:24.882Z,11.7
2019-05-20T01:11:25.998Z,11.4
2019-05-20T01:21:26.466Z,9.8
2019-05-20T01:31:26.236Z,9.1
2019-05-20T01:41:27.644Z,9.0
2019-05-20T01:51:26.576Z,9.7
2019-05-20T02:01:25.774Z,9.6
2019-05-20T02:11:32.601Z,9.0
2019-05-20T02:21:27.059Z,10.2
2019-05-20T02:31:26.583Z,9.3
2019-05-20T02:41:26.353Z,8.7
2019-05-20T02:51:27.163Z,9.4
2019-05-20T03:01:24.783Z,9.6
2019-05-20T03:11:26.300Z,10.3
2019-05-20T03:21:25.783Z,9.3
2019-05-20T03:31:26.802Z,9.4
2019-05-20T03:41:28.171Z,10.5
2019-05-20T03:51:24.755Z,11.5
2019-05-20T04:01:26.526Z,12.4
2019-05-20T04:11:28.349Z,15.6
2019-05-20T04:21:26.363Z,13.0
2019-05-20T04:31:24.798Z,16.7
2019-05-20T04:41:25.712Z,15.2
2019-05-20T04:51:26.778Z,12.9
2019-05-20T05:01:25.380Z,15.4
2019-05-20T05:11:26.672Z,18.5
2019-05-20T05:21:25.845Z,17.7
2019-05-20T05:31:31.571Z,17.4
2019-05-20T05:41:28.237Z,15.8
2019-05-20T05:51:26.470Z,15.1
2019-05-20T06:01:26.948Z,15.1
2019-05-20T06:11:26.677Z,12.0
2019-05-20T06:21:25.439Z,9.1
2019-05-20T06:31:25.719Z,7.4
2019-05-20T06:41:28.389Z,8.4
2019-05-20T06:51:25.138Z,5.0
2019-05-20T07:01:25.262Z,6.6
2019-05-20T07:11:25.101Z,7.1
2019-05-20T07:21:27.410Z,4.3
2019-05-20T07:31:25.052Z,2.7
2019-05-20T07:41:24.902Z,1.8
2019-05-20T07:51:26.302Z,1.5
2019-05-20T08:01:25.214Z,1.9
2019-05-20T08:11:25.552Z,1.4
2019-05-20T08:21:26.782Z,1.4
2019-05-20T08:31:27.797Z,1.2
2019-05-20T08:41:25.771Z,1.4
2019-05-20T08:51:26.080Z,1.0
2019-05-20T09:01:25.213Z,1.4
2019-05-20T09:11:25.013Z,1.5
2019-05-20T09:21:25.139Z,1.7
2019-05-20T09:31:25.120Z,1.9
2019-05-20T09:41:26.138Z,2.3
2019-05-20T09:51:25.016Z,3.3
2019-05-20T10:01:26.366Z,3.7
2019-05-20T10:11:25.719Z,2.4
2019-05-20T10:21:26.281Z,2.9
2019-05-20T10:31:25.292Z,2.5
2019-05-20T10:41:29.444Z,2.8
2019-05-20T10:51:25.609Z,3.2
2019-05-20T11:01:25.490Z,2.3
2019-05-20T11:11:25.363Z,2.5
2019-05-20T11:21:25.204Z,2.6
2019-05-20T11:31:25.524Z,2.3
2019-05-20T11:41:47.006Z,2.3
2019-05-20T11:51:26.028Z,2.1
2019-05-20T12:01:27.686Z,2.7
2019-05-20T12:11:25.701Z,3.2
2019-05-20T12:21:25.747Z,2.2
2019-05-20T12:31:25.747Z,2.5
2019-05-20T12:41:26.156Z,2.5
2019-05-20T12:51:25.660Z,2.7
2019-05-20T13:01:25.492Z,2.3
2019-05-20T13:11:28.265Z,2.0
2019-05-20T13:21:25.445Z,2.2
2019-05-20T13:31:25.680Z,2.0
2019-05-20T13:41:27.189Z,2.3
2019-05-20T13:51:25.451Z,2.3
2019-05-20T14:01:25.665Z,2.5
2019-05-20T14:11:34.046Z,2.1
2019-05-20T14:21:25.762Z,2.4
2019-05-20T14:31:25.958Z,2.7
2019-05-20T14:41:26.167Z,2.4
2019-05-20T14:51:26.096Z,1.8
2019-05-20T15:01:27.641Z,2.1
2019-05-20T15:11:37.426Z,2.5
2019-05-20T15:21:28.682Z,2.2
2019-05-20T15:31:25.652Z,2.4
2019-05-20T15:41:26.551Z,2.7
2019-05-20T15:51:26.747Z,2.4
2019-05-20T16:01:25.919Z,2.7
2019-05-20T16:11:25.925Z,2.3
2019-05-20T16:21:27.548Z,2.6
2019-05-20T16:31:25.622Z,2.3
2019-05-20T16:41:26.175Z,2.7
2019-05-20T16:51:24.951Z,2.7
2019-05-20T17:01:26.020Z,2.7
2019-05-20T17:11:25.519Z,2.9
2019-05-20T17:21:27.994Z,2.7
2019-05-20T17:31:26.703Z,2.3
2019-05-20T17:41:30.778Z,2.7
2019-05-20T17:51:27.974Z,2.8
2019-05-20T18:01:25.898Z,2.7
2019-05-20T18:11:25.651Z,2.5
2019-05-20T18:21:25.337Z,2.6
2019-05-20T18:31:32.232Z,3.1
2019-05-20T18:41:25.599Z,2.7
2019-05-20T18:51:26.618Z,2.9
2019-05-20T19:01:25.327Z,6.3
2019-05-20T19:11:26.272Z,4.8
2019-05-20T19:21:26.314Z,3.9
2019-05-20T19:31:24.988Z,3.7
2019-05-20T19:41:27.057Z,3.6
2019-05-20T19:51:24.901Z,3.4
2019-05-20T20:01:25.599Z,4.5
2019-05-20T20:11:26.865Z,4.5
2019-05-20T20:21:25.720Z,4.6
2019-05-20T20:31:25.736Z,5.0
2019-05-20T20:41:25.854Z,5.3
2019-05-20T20:51:26.246Z,5.0
2019-05-20T21:01:25.519Z,5.3
2019-05-20T21:11:25.876Z,6.4
2019-05-20T21:21:25.447Z,7.3
2019-05-20T21:31:26.926Z,6.2
2019-05-20T21:41:25.532Z,6.3
2019-05-20T21:51:25.842Z,6.6
2019-05-20T22:01:27.327Z,6.2
2019-05-20T22:11:27.023Z,6.8
2019-05-20T22:21:26.465Z,6.3
2019-05-20T22:31:26.095Z,6.1
2019-05-20T22:41:26.700Z,6.5
2019-05-20T22:51:26.975Z,6.6
2019-05-20T23:01:26.165Z,6.8
2019-05-20T23:11:29.026Z,6.6
2019-05-20T23:22:38.780Z,7.1
2019-05-20T23:31:25.457Z,6.8
2019-05-20T23:41:26.868Z,6.6
2019-05-20T23:51:26.834Z,7.4
